Time;durP1;ratioP1;P1;durP2;ratioP2;P2;SDS_P1;SDS_P2;PMS_P1;PMS_P2;Temp;Humidity;BMP_temperature;BMP_pressure;BME280_temperature;BME280_humidity;BME280_pressure;Samples;Min_cycle;Max_cycle;Signal;HPM_P1;HPM_P2
2023/12/29 00:01:32;;;;;;;8.95;1.40;;;9.90;99.90;;;;;;5018401;28;20064;-34
2023/12/29 00:03:58;;;;;;;4.70;1.13;;;9.90;99.90;;;;;;5023149;28;20081;-34
2023/12/29 00:06:24;;;;;;;7.07;1.48;;;9.80;99.90;;;;;;5016183;28;20418;-34
2023/12/29 00:08:50;;;;;;;6.53;1.10;;;9.80;99.90;;;;;;5027055;28;20053;-34
2023/12/29 00:11:22;;;;;;;10.07;1.27;;;9.70;99.90;;;;;;5019501;28;20064;-34
2023/12/29 00:13:47;;;;;;;6.47;1.13;;;9.60;99.90;;;;;;5021587;28;20144;-34
2023/12/29 00:16:16;;;;;;;7.07;1.25;;;9.60;99.90;;;;;;5017136;28;20144;-34
2023/12/29 00:18:42;;;;;;;7.30;1.42;;;9.50;99.90;;;;;;5017723;28;20144;-34
2023/12/29 00:21:09;;;;;;;6.45;1.48;;;9.50;99.90;;;;;;5018186;28;20065;-34
2023/12/29 00:23:35;;;;;;;8.45;0.98;;;9.50;99.90;;;;;;5023064;28;20553;-34
2023/12/29 00:26:00;;;;;;;7.07;1.45;;;9.50;99.90;;;;;;5022651;28;20148;-34
2023/12/29 00:28:26;;;;;;;10.75;1.60;;;9.50;99.90;;;;;;5019921;28;20058;-34
2023/12/29 00:30:52;;;;;;;8.02;1.30;;;9.50;99.90;;;;;;5020802;28;20049;-34
2023/12/29 00:33:17;;;;;;;9.80;2.20;;;9.50;99.90;;;;;;5021104;28;20061;-34
2023/12/29 00:35:43;;;;;;;8.05;1.33;;;9.50;99.90;;;;;;5020412;28;20171;-34
2023/12/29 00:38:09;;;;;;;14.43;1.75;;;9.50;99.90;;;;;;5023009;28;20474;-34
2023/12/29 00:40:34;;;;;;;10.43;2.38;;;9.50;99.90;;;;;;5002650;28;20049;-34
2023/12/29 00:43:01;;;;;;;9.60;1.65;;;9.50;99.90;;;;;;5020037;28;20456;-34
2023/12/29 00:45:32;;;;;;;9.90;1.77;;;9.50;99.90;;;;;;5018711;28;20045;-34
2023/12/29 00:48:02;;;;;;;6.53;1.30;;;9.50;99.90;;;;;;5017395;28;20384;-34
2023/12/29 00:50:27;;;;;;;11.75;1.88;;;9.50;99.90;;;;;;5018378;28;20292;-34
2023/12/29 00:52:53;;;;;;;15.52;2.53;;;9.50;99.90;;;;;;5016641;28;20103;-34
2023/12/29 00:55:19;;;;;;;9.93;2.03;;;9.50;99.90;;;;;;5020025;28;20084;-34
2023/12/29 00:57:45;;;;;;;14.18;2.10;;;9.50;99.90;;;;;;5020457;28;20521;-34
2023/12/29 01:00:12;;;;;;;12.88;2.15;;;9.50;99.90;;;;;;5022788;28;20053;-34
2023/12/29 01:02:38;;;;;;;5.75;1.30;;;9.50;99.90;;;;;;5017796;28;20048;-34
2023/12/29 01:05:05;;;;;;;9.80;2.00;;;9.50;99.90;;;;;;5018933;28;20057;-34
2023/12/29 01:07:31;;;;;;;11.15;1.58;;;9.50;99.90;;;;;;5027236;28;20161;-34
2023/12/29 01:09:56;;;;;;;9.30;1.65;;;9.50;99.90;;;;;;5020176;28;20149;-34
2023/12/29 01:12:22;;;;;;;10.18;1.77;;;9.60;99.90;;;;;;5021448;28;20105;-34
2023/12/29 01:14:48;;;;;;;11.15;1.60;;;9.60;99.90;;;;;;5027217;28;20525;-35
2023/12/29 01:17:14;;;;;;;7.30;1.83;;;9.60;99.90;;;;;;5028227;28;20566;-35
2023/12/29 01:19:39;;;;;;;5.93;1.52;;;9.70;99.90;;;;;;5023961;28;20081;-34
2023/12/29 01:22:05;;;;;;;5.75;1.48;;;9.70;99.90;;;;;;5023237;28;20045;-35
2023/12/29 01:24:31;;;;;;;8.05;1.20;;;9.70;99.90;;;;;;5025202;28;20048;-35
2023/12/29 01:26:56;;;;;;;9.77;1.35;;;9.70;99.90;;;;;;5020643;28;21457;-35
2023/12/29 01:29:22;;;;;;;4.07;0.93;;;9.70;99.90;;;;;;5026789;28;20411;-34
2023/12/29 01:31:48;;;;;;;3.72;0.70;;;9.80;99.90;;;;;;5026468;28;20057;-35
2023/12/29 01:34:13;;;;;;;9.07;1.30;;;9.70;99.90;;;;;;5020479;28;20095;-35
2023/12/29 01:36:39;;;;;;;7.53;1.33;;;9.70;99.90;;;;;;5023883;28;20049;-35
2023/12/29 01:39:05;;;;;;;9.38;1.27;;;9.70;99.90;;;;;;5023829;28;20538;-35
2023/12/29 01:41:31;;;;;;;4.88;1.25;;;9.70;99.90;;;;;;5020679;28;20419;-35
2023/12/29 01:43:56;;;;;;;9.82;2.58;;;9.70;99.90;;;;;;5021985;28;20137;-34
2023/12/29 01:46:24;;;;;;;9.38;1.60;;;9.60;99.90;;;;;;5031866;28;20454;-35
2023/12/29 01:48:50;;;;;;;9.95;1.45;;;9.60;99.90;;;;;;5022532;28;20315;-35
2023/12/29 01:51:18;;;;;;;12.57;1.77;;;9.70;99.90;;;;;;5024250;28;20104;-35
2023/12/29 01:53:44;;;;;;;9.85;1.42;;;9.70;99.90;;;;;;5026284;28;20049;-35
2023/12/29 01:56:10;;;;;;;10.18;2.08;;;9.70;99.90;;;;;;5024017;28;20088;-35
2023/12/29 01:58:37;;;;;;;10.23;1.65;;;9.70;99.90;;;;;;5021194;28;20048;-35
2023/12/29 02:01:04;;;;;;;13.45;2.58;;;9.70;99.90;;;;;;5023973;28;20057;-35
2023/12/29 02:03:30;;;;;;;12.48;1.80;;;9.80;99.90;;;;;;5029068;28;20063;-36
2023/12/29 02:05:56;;;;;;;9.68;1.88;;;9.80;99.90;;;;;;5025097;28;20058;-35
2023/12/29 02:08:22;;;;;;;9.05;1.20;;;9.80;99.90;;;;;;5021030;28;20053;-35
2023/12/29 02:10:48;;;;;;;10.95;1.75;;;9.80;99.90;;;;;;5025495;28;20178;-35
2023/12/29 02:13:14;;;;;;;9.70;1.60;;;9.90;99.90;;;;;;5018281;28;20061;-35
2023/12/29 02:15:40;;;;;;;7.97;1.30;;;9.80;99.90;;;;;;5016948;28;20144;-35
2023/12/29 02:18:09;;;;;;;6.22;1.00;;;9.90;99.90;;;;;;5014884;28;20184;-35
2023/12/29 02:20:35;;;;;;;8.38;1.35;;;9.90;99.90;;;;;;4998484;28;20061;-35
2023/12/29 02:23:02;;;;;;;10.57;1.60;;;9.90;99.90;;;;;;5014498;28;20053;-35
2023/12/29 02:25:29;;;;;;;9.20;1.27;;;10.00;99.90;;;;;;5023778;28;20261;-35
2023/12/29 02:28:04;;;;;;;9.38;1.38;;;10.00;99.90;;;;;;5020829;28;20057;-35
2023/12/29 02:30:49;;;;;;;11.15;1.10;;;10.00;99.90;;;;;;5022864;28;20061;-35
2023/12/29 02:33:19;;;;;;;12.15;1.80;;;10.00;99.90;;;;;;5021361;28;20054;-35
2023/12/29 02:35:46;;;;;;;6.43;1.23;;;10.00;99.90;;;;;;5023070;28;20058;-35
2023/12/29 02:38:12;;;;;;;11.90;1.33;;;10.00;99.90;;;;;;5053887;28;20045;-36
2023/12/29 02:40:39;;;;;;;9.25;1.80;;;9.90;99.90;;;;;;5022874;28;20042;-34
2023/12/29 02:43:04;;;;;;;7.22;1.60;;;10.00;99.90;;;;;;5024046;28;20493;-33
2023/12/29 02:45:30;;;;;;;9.35;1.80;;;10.00;99.90;;;;;;5020215;28;20149;-33
2023/12/29 02:47:56;;;;;;;8.20;1.83;;;10.00;99.90;;;;;;5021816;28;20053;-33
2023/12/29 02:50:21;;;;;;;8.77;1.70;;;10.00;99.90;;;;;;5023517;28;20041;-33
2023/12/29 02:52:47;;;;;;;6.53;1.90;;;10.00;99.90;;;;;;5024767;28;20150;-34
2023/12/29 02:55:13;;;;;;;8.63;1.60;;;9.90;99.90;;;;;;5022472;28;20077;-34
2023/12/29 02:57:39;;;;;;;9.68;2.05;;;9.80;99.90;;;;;;5020641;28;20535;-34
2023/12/29 03:00:05;;;;;;;12.45;2.20;;;9.80;99.90;;;;;;5026309;28;20052;-34
2023/12/29 03:02:32;;;;;;;5.80;1.27;;;9.80;99.90;;;;;;5013285;28;20045;-34
2023/12/29 03:04:58;;;;;;;6.63;1.52;;;9.70;99.90;;;;;;5021336;28;20103;-34
2023/12/29 03:07:24;;;;;;;12.27;2.17;;;9.70;99.90;;;;;;5025238;28;20511;-34
2023/12/29 03:09:50;;;;;;;12.23;3.00;;;9.60;99.90;;;;;;5023874;28;20065;-34
2023/12/29 03:12:15;;;;;;;9.35;1.45;;;9.50;99.90;;;;;;5019958;28;20504;-34
2023/12/29 03:14:41;;;;;;;9.07;1.65;;;9.50;99.90;;;;;;5021728;28;20056;-34
2023/12/29 03:17:07;;;;;;;10.55;1.50;;;9.50;99.90;;;;;;5022397;28;20099;-34
2023/12/29 03:19:33;;;;;;;7.97;1.52;;;9.40;99.90;;;;;;5015638;28;20053;-34
2023/12/29 03:21:59;;;;;;;9.90;1.15;;;9.40;99.90;;;;;;5022168;28;20145;-34
2023/12/29 03:24:24;;;;;;;9.77;1.45;;;9.40;99.90;;;;;;5022528;28;20144;-34
2023/12/29 03:26:50;;;;;;;7.07;1.40;;;9.40;99.90;;;;;;5022781;28;20060;-34
2023/12/29 03:29:16;;;;;;;10.63;1.38;;;9.50;99.90;;;;;;5022338;28;20041;-34
2023/12/29 03:31:41;;;;;;;10.93;1.73;;;9.40;99.90;;;;;;5025631;28;20106;-34
2023/12/29 03:34:07;;;;;;;9.23;1.98;;;9.40;99.90;;;;;;5024429;28;20041;-34
2023/12/29 03:36:33;;;;;;;10.55;1.42;;;9.40;99.90;;;;;;5024273;28;20053;-34
2023/12/29 03:38:59;;;;;;;10.75;1.67;;;9.40;99.90;;;;;;5020246;28;20050;-34
2023/12/29 03:41:24;;;;;;;8.77;2.10;;;9.50;99.90;;;;;;5017026;28;20072;-34
2023/12/29 03:43:50;;;;;;;8.25;2.03;;;9.60;99.90;;;;;;5018539;28;20049;-34
2023/12/29 03:46:22;;;;;;;5.82;1.40;;;9.60;99.90;;;;;;5018827;28;20419;-34
2023/12/29 03:48:48;;;;;;;12.80;2.08;;;9.60;99.90;;;;;;5021305;28;20326;-33
2023/12/29 03:51:15;;;;;;;10.98;1.83;;;9.60;99.90;;;;;;5022278;28;20041;-34
2023/12/29 03:53:41;;;;;;;8.27;1.85;;;9.60;99.90;;;;;;5020881;28;20466;-34
2023/12/29 03:56:08;;;;;;;10.32;2.10;;;9.60;99.90;;;;;;5017142;28;20487;-34
2023/12/29 03:58:37;;;;;;;12.68;2.55;;;9.50;99.90;;;;;;5021218;28;20053;-34
2023/12/29 04:01:03;;;;;;;11.35;1.98;;;9.50;99.90;;;;;;5018348;28;20507;-34
2023/12/29 04:03:29;;;;;;;17.17;2.63;;;9.40;99.90;;;;;;5018540;28;20064;-34
2023/12/29 04:05:55;;;;;;;9.10;1.92;;;9.40;99.90;;;;;;5050346;28;20160;-34
2023/12/29 04:08:20;;;;;;;9.70;1.83;;;9.30;99.90;;;;;;5021110;28;20073;-34
2023/12/29 04:10:46;;;;;;;12.35;1.92;;;9.40;99.90;;;;;;5021638;28;20061;-34
2023/12/29 04:13:12;;;;;;;7.38;1.70;;;9.40;99.90;;;;;;5022173;28;20411;-34
2023/12/29 04:15:37;;;;;;;11.18;1.75;;;9.40;99.90;;;;;;5025994;28;20041;-34
2023/12/29 04:18:04;;;;;;;9.15;2.20;;;9.40;99.90;;;;;;5023779;28;20037;-34
2023/12/29 04:20:30;;;;;;;10.82;1.52;;;9.40;99.90;;;;;;5018569;28;20060;-34
2023/12/29 04:22:55;;;;;;;11.35;2.08;;;9.40;99.90;;;;;;5015551;28;20048;-34
2023/12/29 04:25:21;;;;;;;12.07;1.63;;;9.50;99.90;;;;;;5023609;28;20411;-34
2023/12/29 04:27:47;;;;;;;13.35;1.90;;;9.50;99.90;;;;;;5014071;28;20060;-34
2023/12/29 04:30:13;;;;;;;10.60;1.85;;;9.50;99.90;;;;;;5021410;28;20454;-35
2023/12/29 04:32:38;;;;;;;12.50;2.65;;;9.50;99.90;;;;;;5019206;28;20134;-35
2023/12/29 04:35:04;;;;;;;11.23;2.05;;;9.50;99.90;;;;;;5018930;28;20053;-35
2023/12/29 04:37:30;;;;;;;13.43;2.20;;;9.40;99.90;;;;;;5017008;28;20049;-34
2023/12/29 04:39:56;;;;;;;15.02;2.53;;;9.40;99.90;;;;;;5020800;28;20127;-34
2023/12/29 04:42:22;;;;;;;15.77;2.22;;;9.40;99.90;;;;;;5021581;28;20260;-35
2023/12/29 04:44:47;;;;;;;12.20;1.70;;;9.40;99.90;;;;;;5019022;28;20057;-35
2023/12/29 04:47:13;;;;;;;15.60;2.20;;;9.30;99.90;;;;;;5018012;28;20100;-35
2023/12/29 04:49:39;;;;;;;14.25;1.77;;;9.30;99.90;;;;;;5020562;28;20058;-35
2023/12/29 04:52:04;;;;;;;13.43;1.52;;;9.30;99.90;;;;;;5018957;28;20046;-35
2023/12/29 04:54:30;;;;;;;11.55;1.73;;;9.30;99.90;;;;;;5021354;28;20148;-35
2023/12/29 04:56:56;;;;;;;7.95;1.92;;;9.30;99.90;;;;;;5024272;28;20062;-35
2023/12/29 04:59:21;;;;;;;13.45;2.25;;;9.30;99.90;;;;;;5018433;28;20060;-35
2023/12/29 05:01:47;;;;;;;14.55;1.90;;;9.30;99.90;;;;;;5014849;28;20147;-35
2023/12/29 05:04:14;;;;;;;11.27;2.00;;;9.40;99.90;;;;;;5017500;28;20144;-35
2023/12/29 05:06:40;;;;;;;16.55;2.33;;;9.30;99.90;;;;;;5019498;28;20053;-35
2023/12/29 05:09:06;;;;;;;11.50;2.25;;;9.30;99.90;;;;;;5023734;28;20049;-35
2023/12/29 05:11:32;;;;;;;14.75;2.25;;;9.30;99.90;;;;;;5020687;28;20415;-35
2023/12/29 05:13:58;;;;;;;20.23;2.60;;;9.30;99.90;;;;;;5022972;28;20054;-35
2023/12/29 05:16:24;;;;;;;10.77;2.13;;;9.30;99.90;;;;;;5020074;28;20057;-35
2023/12/29 05:18:49;;;;;;;12.32;1.80;;;9.30;99.90;;;;;;5023906;28;20515;-35
2023/12/29 05:21:17;;;;;;;10.20;1.90;;;9.30;99.90;;;;;;5019152;28;20088;-35
2023/12/29 05:23:45;;;;;;;12.90;2.40;;;9.30;99.90;;;;;;5021931;28;20539;-35
2023/12/29 05:26:11;;;;;;;12.90;1.83;;;9.30;99.90;;;;;;5021598;28;20183;-35
2023/12/29 05:28:36;;;;;;;13.43;2.40;;;9.30;99.90;;;;;;5021894;28;20136;-35
2023/12/29 05:31:05;;;;;;;13.52;2.30;;;9.40;99.90;;;;;;5022805;28;20529;-35
2023/12/29 05:33:31;;;;;;;15.23;2.47;;;9.40;99.90;;;;;;5012234;28;20479;-35
2023/12/29 05:35:57;;;;;;;14.02;2.20;;;9.40;99.90;;;;;;5005099;28;20058;-35
2023/12/29 05:38:23;;;;;;;16.17;2.63;;;9.30;99.90;;;;;;5004627;28;20053;-35
2023/12/29 05:40:48;;;;;;;14.65;2.45;;;9.30;99.90;;;;;;5017324;28;20053;-35
2023/12/29 05:43:18;;;;;;;14.45;2.25;;;9.30;99.90;;;;;;5015544;28;20140;-35
2023/12/29 05:45:44;;;;;;;12.52;1.95;;;9.30;99.90;;;;;;5016238;28;20108;-35
2023/12/29 05:48:10;;;;;;;14.45;2.30;;;9.30;99.90;;;;;;5022635;28;20057;-35
2023/12/29 05:50:36;;;;;;;15.80;2.55;;;9.30;99.90;;;;;;5018995;28;20049;-35
2023/12/29 05:53:02;;;;;;;18.17;3.05;;;9.40;99.90;;;;;;5022082;28;20041;-35
2023/12/29 05:55:27;;;;;;;20.33;2.85;;;9.40;99.90;;;;;;5017588;28;20483;-35
2023/12/29 05:57:53;;;;;;;14.40;2.33;;;9.40;99.90;;;;;;5022604;28;20053;-35
2023/12/29 06:00:19;;;;;;;16.88;2.58;;;9.40;99.90;;;;;;5020195;28;20063;-35
2023/12/29 06:02:45;;;;;;;20.98;2.40;;;9.50;99.90;;;;;;5019160;28;20064;-35
2023/12/29 06:05:12;;;;;;;11.18;2.20;;;9.50;99.90;;;;;;5023117;28;20056;-35
2023/12/29 06:07:38;;;;;;;15.13;2.28;;;9.50;99.90;;;;;;5019863;28;20442;-35
2023/12/29 06:10:04;;;;;;;15.13;2.25;;;9.50;99.90;;;;;;5021876;28;20521;-35
2023/12/29 06:12:30;;;;;;;21.70;3.35;;;9.50;99.90;;;;;;5026510;28;20167;-35
2023/12/29 06:14:55;;;;;;;15.60;2.40;;;9.50;99.90;;;;;;5026211;28;20057;-35
2023/12/29 06:17:21;;;;;;;15.80;2.88;;;9.50;99.90;;;;;;5021666;28;20113;-35
2023/12/29 06:19:47;;;;;;;17.48;3.10;;;9.50;99.90;;;;;;5025422;28;20049;-35
2023/12/29 06:22:14;;;;;;;18.60;2.92;;;9.50;99.90;;;;;;5024976;28;20569;-34
2023/12/29 06:24:40;;;;;;;13.93;3.15;;;9.50;99.90;;;;;;5024804;28;20571;-35
2023/12/29 06:27:09;;;;;;;15.30;2.80;;;9.50;99.90;;;;;;5027032;28;20057;-36
2023/12/29 06:29:35;;;;;;;18.98;3.03;;;9.50;99.90;;;;;;5023636;28;20049;-35
2023/12/29 06:32:02;;;;;;;15.18;2.63;;;9.50;99.90;;;;;;5017106;28;20111;-35
2023/12/29 06:34:28;;;;;;;23.00;3.42;;;9.50;99.90;;;;;;5022269;28;20050;-35
2023/12/29 06:36:54;;;;;;;12.57;1.67;;;9.50;99.90;;;;;;5021130;28;20096;-35
2023/12/29 06:39:19;;;;;;;16.95;2.72;;;9.50;99.90;;;;;;5025813;28;20045;-35
2023/12/29 06:41:45;;;;;;;19.98;3.83;;;9.50;99.90;;;;;;5025360;28;20077;-35
2023/12/29 06:44:11;;;;;;;26.67;3.40;;;9.50;99.90;;;;;;5019065;28;20132;-36
2023/12/29 06:46:39;;;;;;;20.20;2.42;;;9.50;99.90;;;;;;5023885;28;20045;-35
2023/12/29 06:49:09;;;;;;;22.73;3.35;;;9.50;99.90;;;;;;5021080;28;20045;-35
2023/12/29 06:51:40;;;;;;;20.55;3.13;;;9.50;99.90;;;;;;5028031;28;20053;-35
2023/12/29 06:54:07;;;;;;;17.33;3.33;;;9.50;99.90;;;;;;5024060;28;20045;-35
2023/12/29 06:56:32;;;;;;;18.63;2.80;;;9.50;99.90;;;;;;5024486;28;20060;-35
2023/12/29 06:58:58;;;;;;;20.05;4.25;;;9.40;99.90;;;;;;5016554;28;20136;-35
2023/12/29 07:01:24;;;;;;;20.23;3.08;;;9.40;99.90;;;;;;5015767;28;20491;-35
2023/12/29 07:03:50;;;;;;;16.00;2.47;;;9.40;99.90;;;;;;5026100;28;20072;-35
2023/12/29 07:06:16;;;;;;;18.77;3.05;;;9.40;99.90;;;;;;5022699;28;20046;-35
2023/12/29 07:08:42;;;;;;;20.88;3.10;;;9.40;99.90;;;;;;5019195;28;20136;-35
2023/12/29 07:11:11;;;;;;;18.63;2.70;;;9.40;99.90;;;;;;5029083;28;20054;-35
2023/12/29 07:13:37;;;;;;;19.13;2.75;;;9.40;99.90;;;;;;5021308;28;20570;-35
2023/12/29 07:16:04;;;;;;;18.50;2.83;;;9.40;99.90;;;;;;5018361;28;20556;-35
2023/12/29 07:18:30;;;;;;;19.30;3.00;;;9.40;99.90;;;;;;5022193;28;20057;-35
2023/12/29 07:20:56;;;;;;;14.48;3.40;;;9.40;99.90;;;;;;5018202;28;20568;-35
2023/12/29 07:23:21;;;;;;;14.15;2.28;;;9.50;99.90;;;;;;5021613;28;20495;-35
2023/12/29 07:25:48;;;;;;;16.45;2.40;;;9.40;99.90;;;;;;5022797;28;20045;-35
2023/12/29 07:28:14;;;;;;;20.27;2.63;;;9.50;99.90;;;;;;5021216;28;20111;-35
2023/12/29 07:30:39;;;;;;;14.98;2.10;;;9.40;99.90;;;;;;5023000;28;20053;-35
2023/12/29 07:33:05;;;;;;;13.55;1.58;;;9.40;99.90;;;;;;5021012;28;20132;-36
2023/12/29 07:35:31;;;;;;;14.63;2.40;;;9.40;99.90;;;;;;5021141;28;20037;-35
2023/12/29 07:37:57;;;;;;;16.02;2.67;;;9.40;99.90;;;;;;5019071;28;20046;-36
2023/12/29 07:40:23;;;;;;;15.90;2.55;;;9.40;99.90;;;;;;5019788;28;20066;-35
2023/12/29 07:42:50;;;;;;;15.75;2.70;;;9.40;99.90;;;;;;5024265;28;20049;-36
2023/12/29 07:45:16;;;;;;;14.20;2.30;;;9.40;99.90;;;;;;5019149;28;20049;-36
2023/12/29 07:47:42;;;;;;;11.77;2.03;;;9.40;99.90;;;;;;5016772;28;20050;-36
2023/12/29 07:50:09;;;;;;;13.23;2.42;;;9.50;99.90;;;;;;5021055;28;20133;-36
2023/12/29 07:52:34;;;;;;;15.75;2.40;;;9.50;99.90;;;;;;5019874;28;20049;-36
2023/12/29 07:55:00;;;;;;;10.90;2.67;;;9.50;99.90;;;;;;5018545;28;20403;-36
2023/12/29 07:57:26;;;;;;;17.23;2.53;;;9.50;99.90;;;;;;5019917;28;20049;-36
2023/12/29 07:59:52;;;;;;;14.43;2.40;;;9.50;99.90;;;;;;5018406;28;20531;-36
2023/12/29 08:02:17;;;;;;;15.23;2.55;;;9.50;99.90;;;;;;5018166;28;20171;-36
2023/12/29 08:04:46;;;;;;;13.55;2.90;;;9.50;99.90;;;;;;5025095;28;20064;-35
2023/12/29 08:07:12;;;;;;;14.93;2.25;;;9.60;99.90;;;;;;5022304;28;20049;-36
2023/12/29 08:09:38;;;;;;;16.15;2.88;;;9.60;99.90;;;;;;5022278;28;20056;-36
2023/12/29 08:12:04;;;;;;;12.30;2.55;;;9.60;99.90;;;;;;5020600;28;20418;-35
2023/12/29 08:14:30;;;;;;;14.30;2.33;;;9.60;99.90;;;;;;5021947;28;20041;-35
2023/12/29 08:16:56;;;;;;;10.27;2.55;;;9.70;99.90;;;;;;5022481;28;20064;-36
2023/12/29 08:19:22;;;;;;;16.58;1.85;;;9.70;99.90;;;;;;5014156;28;20069;-36
2023/12/29 08:21:48;;;;;;;16.70;2.33;;;9.70;99.90;;;;;;5020131;28;20057;-36
2023/12/29 08:24:14;;;;;;;12.73;1.92;;;9.70;99.90;;;;;;5021445;28;20063;-35
2023/12/29 08:26:47;;;;;;;12.35;2.03;;;9.70;99.90;;;;;;5018562;28;20462;-35
2023/12/29 08:29:13;;;;;;;;;;;9.70;99.90;;;;;;5019197;28;20053;-35
2023/12/29 08:31:39;;;;;;;19.20;2.42;;;9.70;99.90;;;;;;5015569;28;20288;-35
2023/12/29 08:34:04;;;;;;;11.55;2.50;;;9.60;99.90;;;;;;5026254;28;20085;-34
2023/12/29 08:36:30;;;;;;;13.57;2.08;;;9.70;99.90;;;;;;5019492;28;20045;-34
2023/12/29 08:38:56;;;;;;;11.25;2.05;;;9.70;99.90;;;;;;5020141;28;20064;-35
2023/12/29 08:41:22;;;;;;;11.75;1.90;;;9.70;99.90;;;;;;5018298;28;20052;-35
2023/12/29 08:43:48;;;;;;;9.65;1.70;;;9.70;99.90;;;;;;5019111;28;20057;-35
2023/12/29 08:46:14;;;;;;;9.63;1.77;;;9.70;99.90;;;;;;5019798;28;20488;-35
2023/12/29 08:48:39;;;;;;;13.35;2.92;;;9.70;99.90;;;;;;5020886;28;20049;-35
2023/12/29 08:51:06;;;;;;;12.73;1.92;;;9.70;99.90;;;;;;5022062;28;20063;-35
2023/12/29 08:53:35;;;;;;;7.00;1.80;;;9.70;99.90;;;;;;5017466;28;20065;-36
2023/12/29 08:56:02;;;;;;;10.70;1.90;;;9.70;99.90;;;;;;5018710;28;20065;-36
2023/12/29 08:58:28;;;;;;;9.90;2.50;;;9.80;99.90;;;;;;5020371;28;20149;-34
2023/12/29 09:00:54;;;;;;;6.78;1.67;;;9.80;99.90;;;;;;5017647;28;20104;-37
2023/12/29 09:03:20;;;;;;;8.70;2.15;;;9.70;99.90;;;;;;5016864;28;20052;-36
2023/12/29 09:05:45;;;;;;;4.47;1.30;;;9.80;99.90;;;;;;5019672;28;20053;-37
2023/12/29 09:08:11;;;;;;;8.02;1.30;;;9.70;99.90;;;;;;5019357;28;20045;-36
2023/12/29 09:10:37;;;;;;;11.32;2.00;;;9.70;99.90;;;;;;5020344;28;20053;-36
2023/12/29 09:13:03;;;;;;;9.23;1.77;;;9.70;99.90;;;;;;5015366;28;20058;-36
2023/12/29 09:15:29;;;;;;;8.70;1.70;;;9.70;99.90;;;;;;5015401;28;20482;-36
2023/12/29 09:17:54;;;;;;;10.77;2.08;;;9.70;99.90;;;;;;5011247;28;20054;-35
2023/12/29 09:20:20;;;;;;;13.00;2.05;;;9.70;99.90;;;;;;5016823;28;20103;-36
2023/12/29 09:22:46;;;;;;;5.80;1.38;;;9.70;99.90;;;;;;5018609;28;20054;-36
2023/12/29 09:25:12;;;;;;;9.98;2.08;;;9.70;99.90;;;;;;5020524;28;20041;-35
2023/12/29 09:27:38;;;;;;;5.82;1.63;;;9.70;99.90;;;;;;5021065;28;20594;-36
2023/12/29 09:30:05;;;;;;;7.82;1.55;;;9.70;99.90;;;;;;5025266;28;20152;-35
2023/12/29 09:32:30;;;;;;;9.98;1.75;;;9.70;99.90;;;;;;5021275;28;20538;-36
2023/12/29 09:34:56;;;;;;;8.32;1.52;;;9.70;99.90;;;;;;5019610;28;20573;-35
2023/12/29 09:37:22;;;;;;;9.48;1.05;;;9.70;99.90;;;;;;5018693;28;20050;-36
2023/12/29 09:39:48;;;;;;;7.93;1.25;;;9.80;99.90;;;;;;5021935;28;20419;-36
2023/12/29 09:42:32;;;;;;;9.80;1.35;;;9.80;99.90;;;;;;5021591;28;20042;-35
2023/12/29 09:45:02;;;;;;;7.97;1.38;;;9.80;99.90;;;;;;5017843;28;20052;-36
2023/12/29 09:47:30;;;;;;;5.30;1.30;;;9.70;99.90;;;;;;5024240;28;20052;-36
2023/12/29 09:49:56;;;;;;;10.00;1.48;;;9.70;99.90;;;;;;5018051;28;20561;-36
2023/12/29 09:52:22;;;;;;;9.48;1.55;;;9.70;99.90;;;;;;5028870;28;20049;-36
2023/12/29 09:54:51;;;;;;;6.38;1.15;;;9.70;99.90;;;;;;5021746;28;20045;-35
2023/12/29 09:57:18;;;;;;;7.00;1.00;;;9.60;99.90;;;;;;5016877;28;20061;-36
2023/12/29 09:59:44;;;;;;;5.93;0.85;;;9.30;99.90;;;;;;5019718;28;20487;-35
2023/12/29 10:04:45;;;;;;;10.60;1.35;;;8.80;99.90;;;;;;5523048;22;20054;-34
2023/12/29 10:07:20;;;;;;;7.30;1.17;;;8.60;99.90;;;;;;5018516;28;20076;-36
2023/12/29 10:09:47;;;;;;;8.50;0.98;;;8.50;99.90;;;;;;5024005;28;20128;-34
2023/12/29 10:12:14;;;;;;;5.95;1.25;;;8.30;99.90;;;;;;5021133;28;20486;-34
2023/12/29 10:14:48;;;;;;;4.50;0.60;;;8.10;99.90;;;;;;5006975;28;20045;-34
2023/12/29 10:17:35;;;;;;;7.05;0.70;;;7.70;99.90;;;;;;5023920;28;20049;-34
2023/12/29 10:20:27;;;;;;;6.00;1.02;;;7.40;99.90;;;;;;5022865;28;20129;-34
2023/12/29 10:23:13;;;;;;;6.63;0.60;;;7.30;99.90;;;;;;4977876;28;20490;-34
2023/12/29 10:25:39;;;;;;;8.68;0.90;;;7.20;99.90;;;;;;4989099;28;20573;-34
2023/12/29 10:28:06;;;;;;;4.90;0.70;;;7.30;99.90;;;;;;5017417;28;20494;-34
2023/12/29 10:30:32;;;;;;;4.47;0.70;;;7.50;99.90;;;;;;5023049;28;20132;-34
2023/12/29 10:33:00;;;;;;;6.18;0.70;;;7.60;99.90;;;;;;5021439;28;20049;-34
2023/12/29 10:35:26;;;;;;;8.02;0.88;;;7.90;99.90;;;;;;5023229;28;20053;-34
2023/12/29 10:37:52;;;;;;;4.38;0.80;;;8.10;99.90;;;;;;5021890;28;20053;-35
2023/12/29 10:40:19;;;;;;;7.13;1.63;;;8.30;99.90;;;;;;5039002;28;20077;-34
2023/12/29 10:42:55;;;;;;;4.68;0.80;;;8.40;99.90;;;;;;5025726;28;20045;-34
2023/12/29 10:45:21;;;;;;;6.95;1.45;;;8.50;99.90;;;;;;5004673;28;20049;-35
2023/12/29 10:47:47;;;;;;;8.60;0.95;;;8.60;99.90;;;;;;5020693;28;20085;-35
2023/12/29 10:50:14;;;;;;;6.13;1.10;;;8.70;99.90;;;;;;5025121;28;20048;-35
2023/12/29 10:52:42;;;;;;;7.00;1.10;;;8.80;99.90;;;;;;5008916;28;20045;-35
2023/12/29 10:55:10;;;;;;;9.77;1.45;;;8.90;99.90;;;;;;5019642;28;20037;-37
2023/12/29 10:57:37;;;;;;;8.32;1.40;;;8.90;99.90;;;;;;5023956;28;20061;-36
2023/12/29 11:00:05;;;;;;;10.43;1.90;;;9.00;99.90;;;;;;5012101;28;20042;-50
2023/12/29 11:02:32;;;;;;;9.13;2.13;;;9.10;99.90;;;;;;5027339;28;20053;-34
2023/12/29 11:05:07;;;;;;;12.48;1.40;;;9.20;99.90;;;;;;5026289;28;20057;-34
2023/12/29 11:07:42;;;;;;;11.65;1.63;;;9.20;99.90;;;;;;5023899;28;20084;-34
2023/12/29 11:10:08;;;;;;;11.95;1.77;;;9.30;99.90;;;;;;5026307;28;20483;-35
2023/12/29 11:12:36;;;;;;;11.68;1.33;;;9.40;99.90;;;;;;5022785;28;20164;-34
2023/12/29 11:15:04;;;;;;;9.82;1.42;;;9.60;99.90;;;;;;5006748;28;20640;-35
2023/12/29 11:17:32;;;;;;;11.23;1.23;;;9.60;99.90;;;;;;5003864;28;20460;-35
2023/12/29 11:20:00;;;;;;;11.50;1.40;;;9.80;99.90;;;;;;5023756;28;20049;-34
2023/12/29 11:22:28;;;;;;;10.35;1.70;;;9.80;99.90;;;;;;5005769;28;20068;-34
2023/12/29 11:24:55;;;;;;;12.32;1.35;;;9.90;99.90;;;;;;5005120;28;20049;-35
2023/12/29 11:27:22;;;;;;;11.38;1.77;;;9.90;99.90;;;;;;5007008;28;20053;-34
2023/12/29 11:29:48;;;;;;;11.95;1.85;;;10.00;99.90;;;;;;5017205;28;20495;-34
2023/12/29 11:32:24;;;;;;;10.52;1.23;;;10.00;99.90;;;;;;5007045;28;20124;-34
2023/12/29 11:34:54;;;;;;;7.60;0.93;;;10.00;99.90;;;;;;5023953;28;20053;-34
2023/12/29 11:38:08;;;;;;;10.27;1.90;;;10.10;99.90;;;;;;5022961;28;20392;-34
2023/12/29 11:40:41;;;;;;;11.35;1.90;;;10.10;99.90;;;;;;4987850;28;20050;-35
2023/12/29 11:43:14;;;;;;;16.92;1.75;;;10.10;99.90;;;;;;5022879;28;20044;-34
2023/12/29 11:45:40;;;;;;;13.18;2.58;;;10.20;99.90;;;;;;5018807;28;20041;-34
2023/12/29 11:48:06;;;;;;;15.30;2.08;;;10.20;99.90;;;;;;5019343;28;20410;-34
2023/12/29 11:50:34;;;;;;;13.73;2.22;;;10.20;99.90;;;;;;5026274;28;20045;-34
2023/12/29 11:53:00;;;;;;;10.63;1.70;;;10.20;99.90;;;;;;5003879;28;20103;-34
2023/12/29 11:55:32;;;;;;;11.45;1.95;;;10.30;99.90;;;;;;5018044;28;20048;-34
2023/12/29 11:57:59;;;;;;;11.38;1.67;;;10.30;99.90;;;;;;5020953;28;20037;-34
2023/12/29 12:00:44;;;;;;;13.57;2.17;;;10.30;99.90;;;;;;5021075;28;20050;-34
2023/12/29 12:03:23;;;;;;;7.30;1.15;;;10.30;99.90;;;;;;5023419;28;20098;-34
2023/12/29 12:05:50;;;;;;;9.65;1.15;;;10.30;99.90;;;;;;5023262;28;20530;-35
2023/12/29 12:08:39;;;;;;;7.07;1.40;;;10.30;99.90;;;;;;5024625;28;20068;-34
2023/12/29 12:11:29;;;;;;;8.75;1.40;;;10.20;99.90;;;;;;5019137;28;20477;-34
2023/12/29 12:13:59;;;;;;;9.55;1.35;;;10.20;99.90;;;;;;5034854;28;20521;-34
2023/12/29 12:16:50;;;;;;;10.35;1.45;;;10.20;99.90;;;;;;5023893;28;20098;-35
2023/12/29 12:19:20;;;;;;;7.75;1.83;;;10.30;99.90;;;;;;5023709;28;20490;-34
2023/12/29 12:21:50;;;;;;;11.25;1.73;;;10.40;99.90;;;;;;5017851;28;20069;-35
2023/12/29 12:24:19;;;;;;;11.55;1.70;;;10.50;99.90;;;;;;5024412;28;20049;-35
2023/12/29 12:26:45;;;;;;;6.15;0.90;;;10.40;99.90;;;;;;5006982;28;20061;-34
2023/12/29 12:29:14;;;;;;;7.65;0.95;;;10.50;99.90;;;;;;5002632;28;20457;-34
2023/12/29 12:31:52;;;;;;;9.02;1.70;;;10.40;99.90;;;;;;5024803;28;20041;-35
2023/12/29 12:34:18;;;;;;;5.68;0.90;;;10.40;99.90;;;;;;5021163;28;20071;-34
2023/12/29 12:36:59;;;;;;;6.82;1.23;;;10.40;99.90;;;;;;5021030;28;20085;-34
2023/12/29 12:39:37;;;;;;;9.88;1.70;;;10.40;99.90;;;;;;5012329;28;20495;-34
2023/12/29 12:42:03;;;;;;;9.20;1.10;;;10.40;99.90;;;;;;5022014;28;20069;-34
2023/12/29 12:44:30;;;;;;;12.93;1.42;;;10.50;99.90;;;;;;5024434;28;20447;-34
2023/12/29 12:46:58;;;;;;;6.53;1.45;;;10.40;99.90;;;;;;5023645;28;20118;-34
2023/12/29 12:49:25;;;;;;;10.00;1.40;;;10.30;99.90;;;;;;5021428;28;20061;-34
2023/12/29 12:51:50;;;;;;;7.03;1.00;;;10.30;99.90;;;;;;5020978;28;20144;-34
2023/12/29 12:54:19;;;;;;;9.93;1.33;;;10.20;99.90;;;;;;5024980;28;20128;-34